Time;durP1;ratioP1;P1;durP2;ratioP2;P2;SDS_P1;SDS_P2;PMS_P1;PMS_P2;Temp;Humidity;BMP_temperature;BMP_pressure;BME280_temperature;BME280_humidity;BME280_pressure;Samples;Min_cycle;Max_cycle;Signal;HPM_P1;HPM_P2
2021/08/14 00:02:27;;;;;;;5.63;3.85;;;21.80;99.90;;;20.35;100.00;100588.78;2565243;30;134457;-80
2021/08/14 00:05:40;;;;;;;6.20;3.67;;;21.80;99.90;;;20.41;100.00;100587.91;2561227;30;132731;-81
2021/08/14 00:08:56;;;;;;;4.40;3.10;;;21.80;99.90;;;20.45;100.00;100604.63;2550748;38;133000;-81
2021/08/14 00:12:09;;;;;;;5.25;3.65;;;21.80;99.90;;;20.43;100.00;100613.00;2553464;30;133460;-82
2021/08/14 00:15:23;;;;;;;4.47;3.28;;;21.80;99.90;;;20.46;100.00;100636.22;2552396;38;133601;-81
2021/08/14 00:18:37;;;;;;;5.88;3.60;;;21.90;99.90;;;20.50;100.00;100663.81;2550059;30;135035;-81
2021/08/14 00:21:51;;;;;;;5.15;3.53;;;21.80;99.90;;;20.44;100.00;100690.78;2552803;30;132773;-83
2021/08/14 00:25:07;;;;;;;7.43;4.18;;;21.90;99.90;;;20.42;100.00;100675.72;2551525;30;136038;-82
2021/08/14 00:28:20;;;;;;;5.65;3.58;;;21.90;99.90;;;20.42;100.00;100695.59;2551219;30;135617;-82
2021/08/14 00:31:34;;;;;;;6.90;3.47;;;21.90;99.90;;;20.38;100.00;100677.22;2548032;30;135648;-82
2021/08/14 00:34:47;;;;;;;7.65;3.50;;;21.80;99.90;;;20.35;100.00;100662.16;2548308;38;133328;-82
2021/08/14 00:38:01;;;;;;;6.70;3.92;;;21.80;99.90;;;20.28;100.00;100666.72;2548827;30;134027;-81
2021/08/14 00:41:17;;;;;;;4.35;3.47;;;21.80;99.90;;;20.19;100.00;100678.03;2550064;30;135711;-83
2021/08/14 00:44:31;;;;;;;6.32;3.20;;;21.70;99.90;;;20.16;100.00;100682.00;2555950;30;133159;-83
2021/08/14 00:47:45;;;;;;;5.80;3.35;;;21.70;99.90;;;20.12;100.00;100688.09;2551520;30;132979;-82
2021/08/14 00:51:00;;;;;;;4.10;3.15;;;21.70;99.90;;;20.12;100.00;100709.81;2554182;30;133860;-79
2021/08/14 00:54:13;;;;;;;4.65;3.50;;;21.70;99.90;;;20.04;100.00;100721.72;2551019;30;136674;-82
2021/08/14 00:57:29;;;;;;;3.85;3.35;;;21.70;99.90;;;19.97;100.00;100735.31;2563170;30;134634;-82
2021/08/14 01:00:43;;;;;;;3.08;2.80;;;21.60;99.90;;;19.87;100.00;100764.78;2553815;30;132905;-84
2021/08/14 01:03:58;;;;;;;5.10;3.85;;;21.60;99.90;;;19.76;100.00;100797.97;2553425;30;133975;-80
2021/08/14 01:07:12;;;;;;;6.00;3.55;;;21.50;99.90;;;19.69;100.00;100826.97;2551473;30;133534;-82
2021/08/14 01:10:27;;;;;;;6.38;3.50;;;21.50;99.90;;;19.64;100.00;100852.03;2554401;38;134448;-82
2021/08/14 01:13:43;;;;;;;5.97;4.15;;;21.40;99.90;;;19.68;100.00;100871.44;2553842;38;133261;-81
2021/08/14 01:16:57;;;;;;;3.42;2.85;;;21.40;99.90;;;19.71;100.00;100879.19;2551330;30;133136;-81
2021/08/14 01:20:10;;;;;;;3.53;2.53;;;21.30;99.90;;;19.73;100.00;100886.09;2560436;30;134538;-83
2021/08/14 01:23:25;;;;;;;4.97;3.20;;;21.30;99.90;;;19.66;100.00;100897.94;2557559;30;135277;-83
2021/08/14 01:26:41;;;;;;;5.05;3.80;;;21.30;99.90;;;19.61;100.00;100911.31;2554491;30;133231;-81
2021/08/14 01:29:56;;;;;;;5.28;3.45;;;21.20;99.90;;;19.47;100.00;100915.81;2563671;30;133356;-80
2021/08/14 01:33:12;;;;;;;4.78;3.58;;;21.20;99.90;;;19.42;100.00;100936.44;2560377;30;133763;-82
2021/08/14 01:36:27;;;;;;;4.13;3.00;;;21.20;99.90;;;19.45;100.00;100942.31;2554713;30;132855;-82
2021/08/14 01:39:43;;;;;;;6.00;3.38;;;21.10;99.90;;;19.50;100.00;100948.00;2556961;30;133244;-83
2021/08/14 01:42:57;;;;;;;7.63;3.75;;;21.10;99.90;;;19.60;100.00;100961.22;2558541;30;134334;-82
2021/08/14 01:46:12;;;;;;;8.27;4.38;;;21.20;99.90;;;19.66;100.00;100958.53;2559439;30;135626;-81
2021/08/14 01:49:26;;;;;;;7.90;4.38;;;21.20;99.90;;;19.65;100.00;100958.75;2552849;30;133395;-82
2021/08/14 01:52:40;;;;;;;6.68;3.90;;;21.20;99.90;;;19.55;100.00;100959.09;2552731;38;133519;-81
2021/08/14 01:55:53;;;;;;;5.10;3.45;;;21.20;99.90;;;19.46;100.00;100964.84;2551313;30;134563;-82
2021/08/14 01:59:06;;;;;;;5.80;3.08;;;21.20;99.90;;;19.40;100.00;100958.38;2559634;30;133497;-82
2021/08/14 02:02:21;;;;;;;5.63;4.38;;;21.20;99.90;;;19.35;100.00;100961.66;2557282;30;133779;-82
2021/08/14 02:05:35;;;;;;;6.28;4.60;;;21.10;99.90;;;19.33;100.00;100973.75;2562811;30;132977;-82
2021/08/14 02:08:49;;;;;;;5.78;4.00;;;21.10;99.90;;;19.35;100.00;100977.09;2550915;30;135784;-83
2021/08/14 02:12:03;;;;;;;5.05;3.33;;;21.00;99.90;;;19.37;100.00;100975.03;2557086;30;133929;-81
2021/08/14 02:15:17;;;;;;;6.70;3.90;;;21.30;99.90;;;19.40;100.00;100973.81;2557739;30;134180;-83
2021/08/14 02:18:32;;;;;;;5.85;3.97;;;21.00;99.90;;;19.39;100.00;100983.81;2555731;30;133007;-81
2021/08/14 02:21:46;;;;;;;8.02;4.18;;;21.00;99.90;;;19.31;100.00;100987.50;2556796;30;136259;-81
2021/08/14 02:24:59;;;;;;;6.10;3.65;;;20.90;99.90;;;19.29;100.00;100991.44;2553156;30;135794;-81
2021/08/14 02:28:12;;;;;;;6.00;3.78;;;20.90;99.90;;;19.20;100.00;100993.47;2556257;30;133368;-82
2021/08/14 02:31:26;;;;;;;4.13;3.72;;;20.90;99.90;;;19.16;100.00;101004.94;2557425;30;133435;-81
2021/08/14 02:34:40;;;;;;;4.88;3.70;;;20.80;99.90;;;19.14;100.00;101024.13;2552567;30;134123;-82
2021/08/14 02:37:54;;;;;;;5.03;3.60;;;21.00;99.90;;;19.09;100.00;101033.88;2556446;30;133830;-82
2021/08/14 02:41:07;;;;;;;7.75;4.05;;;20.80;99.90;;;19.01;100.00;101035.72;2554543;30;133497;-84
2021/08/14 02:44:19;;;;;;;5.43;3.90;;;21.30;99.90;;;18.97;100.00;101028.97;2567676;30;133306;-82
2021/08/14 02:47:33;;;;;;;5.18;3.47;;;20.70;99.90;;;18.92;100.00;101034.13;2551768;30;133315;-82
2021/08/14 02:50:49;;;;;;;5.07;3.40;;;20.60;99.90;;;18.87;100.00;101042.03;2568439;30;133839;-82
2021/08/14 02:54:02;;;;;;;6.85;3.80;;;21.10;99.90;;;18.84;100.00;101049.72;2565291;30;132857;-82
2021/08/14 02:57:15;;;;;;;4.60;3.35;;;21.10;99.90;;;18.85;100.00;101045.97;2555894;30;133362;-82
2021/08/14 03:00:29;;;;;;;4.18;3.17;;;20.50;99.90;;;18.85;100.00;101038.66;2553049;30;134333;-82
2021/08/14 03:03:43;;;;;;;6.70;4.60;;;21.10;99.90;;;18.87;100.00;101020.34;2556080;30;135564;-82
2021/08/14 03:07:07;;;;;;;6.18;4.13;;;20.60;99.90;;;18.91;100.00;101012.66;2551318;30;134089;-82
2021/08/14 03:10:21;;;;;;;4.63;3.45;;;20.60;99.90;;;18.86;100.00;101013.25;2556938;30;132666;-83
2021/08/14 03:13:35;;;;;;;5.95;4.30;;;20.50;99.90;;;18.85;100.00;101008.00;2555336;30;135521;-83
2021/08/14 03:16:48;;;;;;;6.43;4.35;;;20.50;99.90;;;18.80;100.00;101010.44;2561174;30;135502;-83
2021/08/14 03:20:02;;;;;;;6.25;3.58;;;20.60;99.90;;;18.75;100.00;100991.22;2552475;30;133539;-83
2021/08/14 03:23:17;;;;;;;6.45;3.60;;;20.60;99.90;;;18.71;100.00;100985.34;2555108;30;133406;-82
2021/08/14 03:26:30;;;;;;;5.25;3.70;;;20.50;99.90;;;18.56;100.00;100990.78;2553780;30;133620;-81
2021/08/14 03:29:44;;;;;;;4.85;3.92;;;20.40;99.90;;;18.47;100.00;100994.66;2547658;38;134921;-82
2021/08/14 03:32:57;;;;;;;6.97;4.30;;;20.30;99.90;;;18.37;100.00;100576.94;2553321;30;132711;-82
2021/08/14 03:36:11;;;;;;;5.05;3.80;;;20.20;99.90;;;18.29;100.00;99602.91;2559063;30;133752;-82
2021/08/14 03:39:26;;;;;;;4.85;3.78;;;20.70;99.90;;;18.19;100.00;99607.16;2560673;30;133296;-82
2021/08/14 03:42:38;;;;;;;5.82;3.70;;;20.00;99.90;;;18.17;100.00;99607.41;2561679;30;133601;-82
2021/08/14 03:45:53;;;;;;;8.27;4.40;;;20.00;99.90;;;18.12;100.00;99592.84;2565873;30;133776;-81
2021/08/14 03:49:07;;;;;;;5.63;3.83;;;19.90;99.90;;;18.06;100.00;99558.53;2549456;38;132619;-82
2021/08/14 03:52:20;;;;;;;5.30;3.90;;;19.80;99.90;;;17.99;100.00;99552.38;2554639;30;133843;-81
2021/08/14 03:55:36;;;;;;;5.13;3.83;;;19.80;99.90;;;18.08;100.00;99546.44;2550345;30;135731;-82
2021/08/14 03:58:51;;;;;;;5.75;4.03;;;19.70;99.90;;;17.95;100.00;99565.53;2551575;30;133846;-82
2021/08/14 04:02:04;;;;;;;6.07;4.05;;;19.60;99.90;;;17.81;100.00;99508.00;2556612;30;132882;-81
2021/08/14 04:05:17;;;;;;;4.65;4.15;;;19.50;99.90;;;17.76;100.00;99471.84;2552044;38;135629;-82
2021/08/14 04:08:31;;;;;;;4.22;3.80;;;19.50;99.90;;;17.85;100.00;99449.69;2557380;30;134255;-82
2021/08/14 04:12:09;;;;;;;11.13;3.83;;;19.40;99.90;;;17.72;100.00;99454.41;2552874;30;133831;-83
2021/08/14 04:15:23;;;;;;;4.10;3.53;;;19.30;99.90;;;17.49;100.00;99434.22;2555396;30;132888;-84
2021/08/14 04:18:37;;;;;;;5.80;3.78;;;19.40;99.90;;;17.44;100.00;99400.78;2554310;30;133388;-81
2021/08/14 04:21:51;;;;;;;7.22;4.07;;;19.10;99.90;;;17.33;100.00;99407.75;2556684;30;135764;-84
2021/08/14 04:25:04;;;;;;;6.35;4.20;;;19.00;99.90;;;17.37;100.00;99411.66;2559464;30;133110;-83
2021/08/14 04:28:19;;;;;;;5.05;3.70;;;18.90;99.90;;;17.35;100.00;99402.94;2557891;30;133083;-81
2021/08/14 04:31:32;;;;;;;4.75;4.05;;;18.80;99.90;;;17.38;100.00;99393.56;2561693;30;135624;-83
2021/08/14 04:34:45;;;;;;;6.13;4.43;;;19.10;99.90;;;17.39;100.00;99395.22;2559523;30;133472;-83
2021/08/14 04:37:58;;;;;;;8.75;3.75;;;18.90;99.90;;;17.43;100.00;99388.31;2551868;30;133596;-83
2021/08/14 04:41:11;;;;;;;6.07;4.03;;;18.70;99.90;;;17.55;100.00;99389.25;2566277;30;132975;-81
2021/08/14 04:44:26;;;;;;;5.25;3.95;;;18.70;99.90;;;17.63;100.00;99329.44;2554956;30;134775;-82
2021/08/14 04:47:40;;;;;;;7.40;4.03;;;19.10;99.90;;;17.72;100.00;99324.53;2548575;30;136459;-82
2021/08/14 04:50:53;;;;;;;3.97;3.20;;;18.70;99.90;;;17.76;100.00;99320.34;2557998;30;133663;-81
2021/08/14 04:54:07;;;;;;;5.22;3.80;;;18.70;99.90;;;17.79;100.00;99317.19;2555341;30;132769;-82
2021/08/14 04:57:20;;;;;;;6.78;3.45;;;18.70;99.90;;;17.95;100.00;99328.19;2550844;30;133641;-81
2021/08/14 05:00:36;;;;;;;6.80;4.03;;;19.10;99.90;;;18.22;100.00;99311.56;2551063;38;134813;-81
2021/08/14 05:03:49;;;;;;;6.90;4.25;;;18.90;99.90;;;18.17;100.00;99331.22;2554167;30;132949;-82
2021/08/14 05:07:02;;;;;;;4.75;3.45;;;19.30;99.90;;;18.15;100.00;99357.69;2552009;30;132871;-82
2021/08/14 05:10:16;;;;;;;4.03;3.28;;;19.10;99.90;;;18.34;100.00;99350.34;2556697;38;134479;-81
2021/08/14 05:13:29;;;;;;;9.57;3.75;;;19.20;99.90;;;18.51;100.00;99354.03;2555611;30;134522;-82
2021/08/14 05:16:44;;;;;;;4.38;3.15;;;19.30;99.90;;;18.67;100.00;99346.34;2552773;38;133454;-81
2021/08/14 05:19:57;;;;;;;5.53;3.45;;;19.40;99.90;;;18.78;100.00;99357.19;2559971;30;132596;-83
2021/08/14 05:23:10;;;;;;;6.45;4.03;;;19.50;99.90;;;18.92;100.00;99369.44;2556950;30;134080;-82
2021/08/14 05:26:23;;;;;;;10.02;3.92;;;19.80;99.90;;;18.97;100.00;99440.06;2555080;30;134424;-82
2021/08/14 05:29:39;;;;;;;4.13;3.10;;;19.80;99.90;;;19.25;100.00;99471.09;2558485;30;135582;-82
2021/08/14 05:32:54;;;;;;;4.72;3.30;;;20.50;99.90;;;19.19;100.00;99499.16;2564549;30;134015;-82
2021/08/14 05:36:08;;;;;;;3.72;3.22;;;20.10;99.90;;;19.23;100.00;99543.72;2551410;30;133287;-81
2021/08/14 05:39:22;;;;;;;4.35;3.10;;;21.20;99.90;;;19.34;100.00;99561.91;2556924;30;135491;-81
2021/08/14 05:42:44;;;;;;;5.68;3.33;;;20.50;99.90;;;19.23;100.00;99582.53;2554984;30;135062;-81
2021/08/14 05:45:58;;;;;;;4.28;2.85;;;20.60;99.90;;;19.30;100.00;99599.53;2548932;30;134318;-81
2021/08/14 05:49:13;;;;;;;4.07;2.50;;;20.80;99.90;;;19.38;100.00;99620.09;2548442;38;133774;-83
2021/08/14 05:52:27;;;;;;;7.82;3.40;;;21.00;99.90;;;19.87;100.00;99618.91;2552893;30;134118;-82
2021/08/14 05:55:40;;;;;;;2.92;2.63;;;21.20;99.90;;;19.10;100.00;99666.78;2548753;30;133227;-85
2021/08/14 05:58:53;;;;;;;5.22;2.55;;;21.40;99.90;;;19.91;100.00;99652.66;2551644;30;133123;-83
2021/08/14 06:02:07;;;;;;;6.25;2.75;;;21.50;99.90;;;20.20;100.00;99667.22;2553179;30;133416;-81
2021/08/14 06:05:21;;;;;;;7.05;3.40;;;21.90;99.90;;;20.31;100.00;99703.59;2556402;30;134049;-83
2021/08/14 06:08:35;;;;;;;4.70;2.55;;;21.90;99.90;;;19.77;100.00;99734.56;2552326;30;133281;-84
2021/08/14 06:11:48;;;;;;;2.70;2.05;;;22.20;99.90;;;20.55;100.00;99727.03;2551384;30;135075;-83
2021/08/14 06:15:02;;;;;;;4.03;2.63;;;21.60;99.90;;;20.53;100.00;99745.47;2550787;30;134004;-83
2021/08/14 06:18:15;;;;;;;5.47;2.55;;;22.50;99.90;;;19.93;100.00;99761.88;2547847;38;133634;-81
2021/08/14 06:21:31;;;;;;;3.28;2.08;;;22.60;99.90;;;20.78;100.00;99748.75;2554769;30;133180;-83
2021/08/14 06:24:44;;;;;;;3.83;2.10;;;22.90;99.90;;;20.14;100.00;99781.44;2564091;30;132477;-81
2021/08/14 06:27:57;;;;;;;2.58;2.22;;;23.10;99.90;;;20.46;100.00;99779.25;2560395;30;134313;-82
2021/08/14 06:31:11;;;;;;;2.13;1.83;;;23.50;99.90;;;20.25;100.00;99789.59;2555390;30;133992;-81
2021/08/14 06:34:25;;;;;;;3.13;2.17;;;23.70;99.90;;;21.13;100.00;99769.69;2552628;30;133578;-83
2021/08/14 06:37:40;;;;;;;3.17;1.95;;;23.70;99.50;;;20.62;100.00;99806.59;2548835;30;132711;-80
2021/08/14 06:40:53;;;;;;;0.95;0.95;;;23.90;98.80;;;21.75;100.00;99780.75;2547133;30;133600;-82
2021/08/14 06:44:06;;;;;;;4.28;2.17;;;24.10;98.10;;;21.48;100.00;99830.31;2544781;38;135027;-82
2021/08/14 06:47:20;;;;;;;2.22;1.85;;;24.40;96.70;;;20.74;100.00;99823.72;2547975;38;135662;-82
2021/08/14 06:50:34;;;;;;;4.50;1.60;;;24.90;95.70;;;21.08;100.00;99804.91;2549282;30;133150;-83
2021/08/14 06:53:50;;;;;;;2.67;1.60;;;24.60;94.50;;;21.08;100.00;99811.19;2548523;30;133919;-80
2021/08/14 06:57:04;;;;;;;2.75;2.00;;;24.80;93.90;;;21.60;100.00;99822.13;2555497;30;133273;-82
2021/08/14 07:00:18;;;;;;;3.38;1.67;;;25.20;93.50;;;21.94;100.00;99846.75;2549339;30;134537;-82
2021/08/14 07:03:31;;;;;;;2.47;1.70;;;25.20;92.30;;;21.47;100.00;99888.56;2549442;30;133192;-83
2021/08/14 07:06:47;;;;;;;3.78;1.33;;;25.40;91.70;;;22.47;100.00;99873.66;2549612;30;134196;-82
2021/08/14 07:10:05;;;;;;;3.00;1.70;;;25.90;91.20;;;21.33;100.00;99925.25;2549330;30;133145;-82
2021/08/14 07:13:18;;;;;;;2.55;1.75;;;26.00;89.60;;;21.25;100.00;99912.00;2548650;30;133459;-82
2021/08/14 07:16:31;;;;;;;2.13;1.75;;;26.20;86.90;;;21.15;100.00;99941.63;2547211;30;132801;-84
2021/08/14 07:19:45;;;;;;;1.63;1.00;;;26.30;84.40;;;22.66;100.00;99934.25;2554986;30;135483;-82
2021/08/14 07:22:58;;;;;;;2.60;1.40;;;27.10;82.70;;;22.37;100.00;99969.72;2565410;30;132778;-82
2021/08/14 07:26:13;;;;;;;1.88;1.50;;;26.70;79.80;;;22.41;100.00;99961.88;2547031;30;133599;-81
2021/08/14 07:29:26;;;;;;;2.30;1.08;;;27.10;77.90;;;23.24;100.00;99977.59;2547199;30;134606;-81
2021/08/14 07:32:40;;;;;;;2.53;1.50;;;27.10;77.40;;;24.08;100.00;99999.31;2543918;30;134224;-82
2021/08/14 07:35:53;;;;;;;3.10;1.73;;;27.30;76.50;;;22.90;100.00;100056.66;2544713;30;133614;-83
2021/08/14 07:39:06;;;;;;;3.33;1.10;;;27.70;74.20;;;22.81;100.00;100025.41;2544638;30;133851;-81
2021/08/14 07:42:20;;;;;;;2.22;1.70;;;27.80;71.90;;;23.17;100.00;100054.16;2544772;38;133661;-81
2021/08/14 07:45:34;;;;;;;2.38;1.85;;;27.90;71.00;;;23.19;100.00;100079.31;2545864;30;133535;-83
2021/08/14 07:49:00;;;;;;;2.28;1.30;;;28.10;71.00;;;22.61;100.00;100127.78;2553800;30;134282;-83
2021/08/14 07:52:13;;;;;;;3.92;1.63;;;28.30;67.70;;;24.01;100.00;100833.13;2547119;30;135269;-82
2021/08/14 07:55:28;;;;;;;3.33;2.28;;;28.20;68.30;;;23.67;100.00;100848.31;2543825;30;134781;-81
2021/08/14 07:58:44;;;;;;;2.03;1.35;;;28.60;68.30;;;22.92;100.00;100848.53;2541726;30;133912;-82
2021/08/14 08:01:57;;;;;;;4.07;1.67;;;28.70;66.90;;;22.99;100.00;100844.91;2547813;30;133706;-83
2021/08/14 08:05:10;;;;;;;3.22;1.60;;;28.60;65.00;;;23.04;100.00;100845.06;2545438;30;133746;-84
2021/08/14 08:08:23;;;;;;;2.13;1.67;;;28.60;64.90;;;23.24;100.00;100845.69;2542232;30;133908;-82
2021/08/14 08:11:36;;;;;;;3.42;2.38;;;28.50;63.50;;;23.23;100.00;100833.94;2548215;30;134022;-81
2021/08/14 08:14:51;;;;;;;5.75;1.40;;;28.50;62.00;;;22.55;100.00;100836.69;2542313;30;135530;-82
2021/08/14 08:18:04;;;;;;;1.92;1.40;;;28.40;62.30;;;23.68;100.00;100840.97;2541778;38;133101;-81
2021/08/14 08:21:17;;;;;;;2.55;1.63;;;28.40;63.00;;;23.51;100.00;100840.75;2557692;30;133481;-80
2021/08/14 08:24:31;;;;;;;2.08;1.30;;;28.70;62.50;;;23.71;100.00;100845.97;2550177;30;133964;-81
2021/08/14 08:27:44;;;;;;;2.72;1.45;;;28.80;61.10;;;23.42;100.00;100842.09;2542434;38;136118;-81
2021/08/14 08:31:00;;;;;;;1.42;1.25;;;28.70;59.90;;;23.46;100.00;100833.22;2541868;30;133188;-82
2021/08/14 08:34:13;;;;;;;2.72;1.85;;;28.80;59.50;;;23.60;100.00;100832.03;2546817;30;133640;-82
2021/08/14 08:37:26;;;;;;;2.10;1.63;;;29.00;59.30;;;23.41;100.00;100832.25;2544959;30;133931;-82
2021/08/14 08:40:43;;;;;;;1.60;1.50;;;29.10;58.80;;;23.35;100.00;100831.28;2550374;30;133632;-81
2021/08/14 08:43:57;;;;;;;1.63;1.33;;;28.70;57.80;;;23.30;100.00;100842.03;2554262;30;133510;-82
2021/08/14 08:47:17;;;;;;;3.17;1.92;;;28.70;57.20;;;23.35;100.00;100838.63;2548133;30;133394;-82
2021/08/14 08:50:31;;;;;;;5.50;1.83;;;28.60;57.30;;;23.80;100.00;100848.16;2545904;30;133756;-84
2021/08/14 08:53:45;;;;;;;3.45;1.90;;;28.60;57.70;;;24.02;100.00;100847.63;2547035;30;134059;-83
2021/08/14 08:56:58;;;;;;;3.13;1.70;;;28.50;57.20;;;24.11;100.00;100841.59;2544534;30;133625;-83
2021/08/14 09:00:15;;;;;;;1.98;1.70;;;28.50;57.50;;;24.64;100.00;100840.75;2542076;30;133049;-80
2021/08/14 09:03:39;;;;;;;3.10;1.80;;;28.50;57.60;;;24.43;100.00;100844.91;2544958;30;134240;-83
2021/08/14 09:07:05;;;;;;;2.90;1.52;;;28.80;57.50;;;24.44;100.00;100849.31;2543393;30;134472;-82
2021/08/14 09:10:29;;;;;;;1.98;1.50;;;28.90;56.30;;;24.63;100.00;100841.81;2547537;30;134398;-82
2021/08/14 09:13:43;;;;;;;3.65;1.50;;;29.00;56.10;;;24.76;100.00;100838.84;2553475;38;133457;-82
2021/08/14 09:16:57;;;;;;;5.70;1.80;;;28.80;55.70;;;24.75;100.00;100834.47;2556823;30;133728;-83
2021/08/14 09:20:25;;;;;;;2.88;1.85;;;29.10;55.40;;;24.05;100.00;100828.88;2546153;30;135411;-83
2021/08/14 09:23:39;;;;;;;1.95;1.45;;;29.10;54.70;;;24.62;100.00;100824.56;2553282;30;133206;-82
2021/08/14 09:26:58;;;;;;;1.50;1.38;;;29.30;54.80;;;23.68;100.00;100821.84;2550053;30;132886;-82
2021/08/14 09:30:14;;;;;;;3.75;1.88;;;29.50;54.10;;;24.51;100.00;100822.66;2547957;30;133826;-82
2021/08/14 09:33:36;;;;;;;3.95;1.67;;;29.60;54.10;;;24.47;100.00;100813.28;2559144;30;135209;-83
2021/08/14 09:36:51;;;;;;;1.60;1.50;;;29.50;53.40;;;24.58;100.00;100822.56;2551278;30;135012;-83
2021/08/14 09:40:20;;;;;;;2.25;1.80;;;29.40;53.00;;;24.40;100.00;100823.50;2555750;30;133866;-82
2021/08/14 09:43:40;;;;;;;1.90;1.33;;;29.00;52.80;;;24.39;100.00;100815.53;2559068;30;133710;-82
2021/08/14 09:47:11;;;;;;;1.92;1.83;;;28.90;53.00;;;24.64;100.00;100825.19;2544804;30;136557;-82
2021/08/14 09:50:43;;;;;;;1.85;1.33;;;29.30;53.90;;;25.53;100.00;100814.00;2554242;30;135837;-81
2021/08/14 09:54:03;;;;;;;2.47;1.73;;;28.90;53.90;;;25.13;100.00;100814.81;2548883;30;133290;-81
2021/08/14 09:57:32;;;;;;;2.67;1.45;;;29.10;53.80;;;24.30;100.00;100817.78;2555552;30;133278;-81
2021/08/14 10:00:46;;;;;;;2.35;1.60;;;29.60;53.20;;;24.82;100.00;100809.72;2547774;30;136333;-82
2021/08/14 10:04:03;;;;;;;1.50;1.23;;;29.30;53.30;;;24.66;100.00;100809.34;2554352;30;133146;-84
2021/08/14 10:07:17;;;;;;;5.13;1.83;;;29.30;52.90;;;24.82;100.00;100805.06;2555428;30;133320;-83
2021/08/14 10:10:32;;;;;;;3.20;1.80;;;29.50;52.70;;;24.87;100.00;100810.66;2586456;30;134150;-83
2021/08/14 10:13:50;;;;;;;1.67;1.10;;;29.40;52.10;;;24.74;100.00;100813.63;2554993;38;135193;-82
2021/08/14 10:17:05;;;;;;;3.50;1.48;;;29.40;52.00;;;25.24;100.00;100797.53;2548186;38;134938;-85
2021/08/14 10:20:19;;;;;;;1.20;1.10;;;29.50;52.10;;;25.21;100.00;100803.50;2553603;30;132854;-83
2021/08/14 10:23:43;;;;;;;2.10;1.13;;;29.70;51.60;;;25.26;100.00;100794.53;2559275;30;133558;-82
2021/08/14 10:26:58;;;;;;;2.22;1.48;;;29.80;51.10;;;25.34;100.00;100802.41;2552105;30;136268;-83
2021/08/14 10:30:13;;;;;;;1.83;1.50;;;29.80;50.90;;;25.30;100.00;100787.50;2549191;30;133653;-81
2021/08/14 10:33:35;;;;;;;3.40;1.33;;;30.00;50.60;;;26.30;100.00;100776.81;2545800;30;133958;-83
2021/08/14 10:37:06;;;;;;;2.30;1.38;;;30.10;51.20;;;25.59;100.00;100766.44;2565424;30;134299;-84
2021/08/14 10:40:22;;;;;;;1.98;1.05;;;30.40;50.40;;;25.72;100.00;100764.25;2560669;30;135223;-81
2021/08/14 10:43:43;;;;;;;3.30;1.55;;;30.40;50.30;;;25.65;100.00;100755.34;2548128;30;135821;-82
2021/08/14 10:47:11;;;;;;;1.65;1.23;;;30.70;50.00;;;26.17;100.00;100760.66;2550465;30;134541;-81
2021/08/14 10:50:30;;;;;;;1.30;1.08;;;30.90;49.70;;;26.48;100.00;100760.06;2560497;30;134664;-84
2021/08/14 10:54:02;;;;;;;2.75;1.40;;;31.70;49.90;;;26.40;100.00;100754.19;2547717;30;133998;-83
2021/08/14 10:57:42;;;;;;;3.88;1.63;;;31.80;48.60;;;26.26;100.00;100761.06;2547842;30;133380;-84
2021/08/14 11:00:58;;;;;;;4.03;1.33;;;32.20;47.60;;;26.29;100.00;100755.09;2553841;30;133135;-81
2021/08/14 11:04:11;;;;;;;1.25;1.15;;;32.30;46.70;;;25.93;100.00;100749.00;2558256;30;135661;-81
2021/08/14 11:08:00;;;;;;;2.35;1.02;;;32.20;45.60;;;26.70;100.00;100738.19;2553916;30;134461;-82
2021/08/14 11:11:13;;;;;;;2.80;1.25;;;32.30;45.80;;;25.74;100.00;100731.94;2545071;30;133233;-80
2021/08/14 11:14:47;;;;;;;3.92;1.08;;;32.20;44.50;;;25.98;100.00;100731.78;2547842;30;134102;-80
2021/08/14 11:18:07;;;;;;;1.95;1.17;;;32.00;45.20;;;26.21;100.00;100723.41;2547303;38;133530;-83
2021/08/14 11:21:41;;;;;;;2.42;1.42;;;31.90;45.30;;;26.01;100.00;100712.09;2558345;30;134846;-81
2021/08/14 11:25:11;;;;;;;1.80;1.25;;;32.00;44.60;;;25.99;100.00;100717.00;2552017;30;135517;-84
2021/08/14 11:28:30;;;;;;;3.17;1.63;;;31.80;44.20;;;26.21;100.00;100719.84;2560395;30;133207;-81
2021/08/14 11:31:45;;;;;;;1.88;1.25;;;31.60;44.40;;;26.20;100.00;100715.44;2553873;38;134608;-82
2021/08/14 11:35:01;;;;;;;1.63;0.80;;;31.50;45.10;;;27.11;100.00;100719.47;2545808;30;133892;-82
2021/08/14 11:38:21;;;;;;;1.75;0.95;;;31.80;45.70;;;27.26;100.00;100711.44;2544972;30;135006;-82
2021/08/14 11:41:41;;;;;;;2.13;1.23;;;32.20;44.80;;;27.74;100.00;100698.75;2546570;30;132741;-83
2021/08/14 11:44:54;;;;;;;3.65;1.55;;;32.70;44.40;;;26.64;100.00;100694.44;2547905;30;133421;-81
2021/08/14 11:48:18;;;;;;;2.40;1.30;;;33.10;42.70;;;26.98;100.00;100697.91;2547734;30;133931;-83
2021/08/14 11:51:40;;;;;;;2.22;0.90;;;33.20;42.50;;;27.39;100.00;100686.28;2544330;38;134877;-82
2021/08/14 11:54:58;;;;;;;1.58;1.00;;;33.20;42.60;;;27.63;100.00;100689.56;2547956;30;133588;-82
2021/08/14 11:58:12;;;;;;;1.23;1.10;;;33.60;42.50;;;27.32;100.00;100688.44;2559716;30;133553;-84
2021/08/14 12:01:26;;;;;;;4.00;1.55;;;33.90;41.40;;;27.03;100.00;100689.75;2552692;30;135178;-83
2021/08/14 12:04:40;;;;;;;3.75;1.42;;;34.00;40.20;;;26.47;100.00;100672.50;2547823;30;133901;-82
2021/08/14 12:07:57;;;;;;;1.33;1.08;;;33.90;39.10;;;26.87;100.00;100694.19;2581474;30;133755;-84
2021/08/14 12:11:11;;;;;;;2.92;1.20;;;33.80;39.30;;;26.56;100.00;100686.66;2553598;30;133339;-80
2021/08/14 12:14:36;;;;;;;2.15;1.15;;;33.60;39.30;;;26.64;100.00;100683.44;2550116;30;133051;-80
2021/08/14 12:18:01;;;;;;;2.30;0.93;;;33.20;39.50;;;26.86;100.00;100675.22;2558504;30;135146;-81
2021/08/14 12:21:19;;;;;;;2.97;1.20;;;33.00;40.00;;;27.40;100.00;100676.13;2549177;30;132880;-82
2021/08/14 12:24:37;;;;;;;2.30;1.25;;;32.90;40.50;;;27.79;100.00;100665.81;2547068;30;136018;-81
2021/08/14 12:28:18;;;;;;;2.67;1.20;;;33.00;40.50;;;27.22;100.00;100660.00;2545727;30;133801;-82
2021/08/14 12:31:38;;;;;;;2.42;1.15;;;33.40;40.10;;;27.03;100.00;100652.13;2544666;30;134417;-84
2021/08/14 12:35:16;;;;;;;1.25;1.02;;;33.50;38.60;;;27.05;100.00;100646.38;2548985;30;133612;-84
2021/08/14 12:38:35;;;;;;;1.30;1.20;;;33.70;37.70;;;27.36;100.00;100653.81;2545553;30;133909;-82
2021/08/14 12:41:59;;;;;;;1.40;0.82;;;33.70;38.00;;;27.21;100.00;100641.84;2547576;30;134269;-82
2021/08/14 12:45:22;;;;;;;2.70;1.20;;;33.50;38.10;;;27.15;100.00;100633.56;2555906;30;133220;-85
2021/08/14 12:48:37;;;;;;;1.48;1.25;;;33.40;38.20;;;27.77;100.00;100634.97;2547393;30;133435;-83
2021/08/14 12:51:50;;;;;;;3.60;1.25;;;33.30;38.50;;;27.46;100.00;100636.59;2553593;30;135752;-80
2021/08/14 12:55:11;;;;;;;3.33;0.98;;;33.50;38.50;;;27.38;100.00;100637.09;2550829;30;135739;-83
2021/08/14 12:58:30;;;;;;;2.33;1.50;;;33.60;37.80;;;27.57;100.00;100618.34;2546084;30;135018;-83
2021/08/14 13:01:49;;;;;;;1.15;1.05;;;33.60;38.00;;;27.21;100.00;100625.38;2569933;30;133406;-84
2021/08/14 13:05:03;;;;;;;1.17;1.08;;;33.40;36.80;;;27.28;100.00;100613.09;2555788;30;133588;-83
2021/08/14 13:08:16;;;;;;;2.72;1.42;;;32.90;36.80;;;27.72;100.00;100610.19;2549904;30;134336;-83
2021/08/14 13:11:30;;;;;;;2.42;0.90;;;33.00;37.90;;;28.12;100.00;100599.47;2557161;30;133873;-81
2021/08/14 13:14:45;;;;;;;2.35;1.10;;;33.20;37.60;;;27.56;100.00;100597.44;2555037;38;132898;-82
2021/08/14 13:17:59;;;;;;;1.45;1.00;;;33.20;36.80;;;27.64;100.00;100597.78;2556583;30;136818;-81
2021/08/14 13:21:13;;;;;;;2.65;0.90;;;33.00;37.30;;;28.32;100.00;100587.75;2543807;30;135343;-83
2021/08/14 13:24:27;;;;;;;2.70;0.98;;;33.10;37.80;;;27.86;100.00;100595.72;2549760;30;132962;-83